sensor_id;sensor_type;location;lat;lon;timestamp;temperature;humidity
11617;DHT22;5864;52.998;9.068;2023-06-01T00:00:49;13.10;99.90
11617;DHT22;5864;52.998;9.068;2023-06-01T00:03:35;13.10;99.90
11617;DHT22;5864;52.998;9.068;2023-06-01T00:06:22;13.00;99.90
11617;DHT22;5864;52.998;9.068;2023-06-01T00:09:07;13.00;99.90
11617;DHT22;5864;52.998;9.068;2023-06-01T00:11:53;13.00;99.90
11617;DHT22;5864;52.998;9.068;2023-06-01T00:14:40;13.00;99.90
11617;DHT22;5864;52.998;9.068;2023-06-01T00:17:26;13.20;99.90
11617;DHT22;5864;52.998;9.068;2023-06-01T00:20:13;13.20;99.90
11617;DHT22;5864;52.998;9.068;2023-06-01T00:22:59;13.10;99.90
11617;DHT22;5864;52.998;9.068;2023-06-01T00:25:44;13.00;99.90
11617;DHT22;5864;52.998;9.068;2023-06-01T00:28:30;12.80;99.90
11617;DHT22;5864;52.998;9.068;2023-06-01T00:31:18;12.80;99.90
11617;DHT22;5864;52.998;9.068;2023-06-01T00:34:03;12.90;99.90
11617;DHT22;5864;52.998;9.068;2023-06-01T00:36:49;12.90;99.90
11617;DHT22;5864;52.998;9.068;2023-06-01T00:39:35;12.90;99.90
11617;DHT22;5864;52.998;9.068;2023-06-01T00:42:20;12.80;99.90
11617;DHT22;5864;52.998;9.068;2023-06-01T00:45:07;12.80;99.90
11617;DHT22;5864;52.998;9.068;2023-06-01T00:47:54;12.60;99.90
11617;DHT22;5864;52.998;9.068;2023-06-01T00:50:40;12.60;99.90
11617;DHT22;5864;52.998;9.068;2023-06-01T00:53:27;12.60;99.90
11617;DHT22;5864;52.998;9.068;2023-06-01T00:56:13;12.70;99.90
11617;DHT22;5864;52.998;9.068;2023-06-01T00:58:58;12.70;99.90
11617;DHT22;5864;52.998;9.068;2023-06-01T01:01:44;12.80;99.90
11617;DHT22;5864;52.998;9.068;2023-06-01T01:04:32;12.70;99.90
11617;DHT22;5864;52.998;9.068;2023-06-01T01:07:23;12.50;99.90
11617;DHT22;5864;52.998;9.068;2023-06-01T01:10:19;12.50;99.90
11617;DHT22;5864;52.998;9.068;2023-06-01T01:13:10;12.40;99.90
11617;DHT22;5864;52.998;9.068;2023-06-01T01:16:01;12.50;99.90
11617;DHT22;5864;52.998;9.068;2023-06-01T01:18:51;12.50;99.90
11617;DHT22;5864;52.998;9.068;2023-06-01T01:21:42;12.70;99.90
11617;DHT22;5864;52.998;9.068;2023-06-01T01:24:42;12.60;99.90
11617;DHT22;5864;52.998;9.068;2023-06-01T01:27:39;12.70;99.90
11617;DHT22;5864;52.998;9.068;2023-06-01T01:30:28;12.70;99.90
11617;DHT22;5864;52.998;9.068;2023-06-01T01:33:13;12.70;99.90
11617;DHT22;5864;52.998;9.068;2023-06-01T01:36:01;12.50;99.90
11617;DHT22;5864;52.998;9.068;2023-06-01T01:38:47;12.40;99.90
11617;DHT22;5864;52.998;9.068;2023-06-01T01:41:33;12.50;99.90
11617;DHT22;5864;52.998;9.068;2023-06-01T01:44:19;12.20;99.90
11617;DHT22;5864;52.998;9.068;2023-06-01T01:47:09;12.30;99.90
11617;DHT22;5864;52.998;9.068;2023-06-01T01:50:00;12.30;99.90
11617;DHT22;5864;52.998;9.068;2023-06-01T01:52:48;12.40;99.90
11617;DHT22;5864;52.998;9.068;2023-06-01T01:55:34;12.30;99.90
11617;DHT22;5864;52.998;9.068;2023-06-01T01:58:21;12.20;99.90
11617;DHT22;5864;52.998;9.068;2023-06-01T02:01:08;12.20;99.90
11617;DHT22;5864;52.998;9.068;2023-06-01T02:03:59;12.30;99.90
11617;DHT22;5864;52.998;9.068;2023-06-01T02:06:46;12.30;99.90
11617;DHT22;5864;52.998;9.068;2023-06-01T02:09:31;12.50;99.90
11617;DHT22;5864;52.998;9.068;2023-06-01T02:12:17;12.20;99.90
11617;DHT22;5864;52.998;9.068;2023-06-01T02:15:03;12.30;99.90
11617;DHT22;5864;52.998;9.068;2023-06-01T02:17:49;12.20;99.90
11617;DHT22;5864;52.998;9.068;2023-06-01T02:20:36;12.10;99.90
11617;DHT22;5864;52.998;9.068;2023-06-01T02:23:23;12.20;99.90
11617;DHT22;5864;52.998;9.068;2023-06-01T02:26:09;12.40;99.90
11617;DHT22;5864;52.998;9.068;2023-06-01T02:28:54;12.40;99.90
11617;DHT22;5864;52.998;9.068;2023-06-01T02:31:41;12.50;99.90
11617;DHT22;5864;52.998;9.068;2023-06-01T02:34:26;12.50;99.90
11617;DHT22;5864;52.998;9.068;2023-06-01T02:37:13;12.40;99.90
11617;DHT22;5864;52.998;9.068;2023-06-01T02:39:59;12.40;99.90
11617;DHT22;5864;52.998;9.068;2023-06-01T02:42:44;12.50;99.90
11617;DHT22;5864;52.998;9.068;2023-06-01T02:45:31;12.70;99.90
11617;DHT22;5864;52.998;9.068;2023-06-01T02:48:16;12.60;99.90
11617;DHT22;5864;52.998;9.068;2023-06-01T02:51:02;12.70;99.90
11617;DHT22;5864;52.998;9.068;2023-06-01T02:53:49;12.70;99.90
11617;DHT22;5864;52.998;9.068;2023-06-01T02:56:35;12.50;99.90
11617;DHT22;5864;52.998;9.068;2023-06-01T02:59:21;12.30;99.90
11617;DHT22;5864;52.998;9.068;2023-06-01T03:02:06;12.50;99.90
11617;DHT22;5864;52.998;9.068;2023-06-01T03:04:52;12.50;99.90
11617;DHT22;5864;52.998;9.068;2023-06-01T03:07:38;12.50;99.90
11617;DHT22;5864;52.998;9.068;2023-06-01T03:10:26;12.60;99.90
11617;DHT22;5864;52.998;9.068;2023-06-01T03:13:11;12.60;99.90
11617;DHT22;5864;52.998;9.068;2023-06-01T03:15:57;13.20;99.90
11617;DHT22;5864;52.998;9.068;2023-06-01T03:18:42;12.70;99.90
11617;DHT22;5864;52.998;9.068;2023-06-01T03:21:29;12.50;99.90
11617;DHT22;5864;52.998;9.068;2023-06-01T03:24:15;12.60;99.90
11617;DHT22;5864;52.998;9.068;2023-06-01T03:27:05;12.60;99.90
11617;DHT22;5864;52.998;9.068;2023-06-01T03:29:50;12.70;99.90
11617;DHT22;5864;52.998;9.068;2023-06-01T03:32:37;12.90;99.90
11617;DHT22;5864;52.998;9.068;2023-06-01T03:35:23;13.00;99.90
11617;DHT22;5864;52.998;9.068;2023-06-01T03:38:08;13.00;99.90
11617;DHT22;5864;52.998;9.068;2023-06-01T03:40:54;13.00;99.90
11617;DHT22;5864;52.998;9.068;2023-06-01T03:43:41;13.00;99.90
11617;DHT22;5864;52.998;9.068;2023-06-01T03:46:26;13.10;99.90
11617;DHT22;5864;52.998;9.068;2023-06-01T03:49:12;13.00;99.90
11617;DHT22;5864;52.998;9.068;2023-06-01T03:51:58;13.10;99.90
11617;DHT22;5864;52.998;9.068;2023-06-01T03:54:43;13.10;99.90
11617;DHT22;5864;52.998;9.068;2023-06-01T03:57:29;13.10;99.90
11617;DHT22;5864;52.998;9.068;2023-06-01T04:00:16;13.10;99.90
11617;DHT22;5864;52.998;9.068;2023-06-01T04:03:03;12.90;99.90
11617;DHT22;5864;52.998;9.068;2023-06-01T04:05:51;13.00;99.90
11617;DHT22;5864;52.998;9.068;2023-06-01T04:08:43;13.00;99.90
11617;DHT22;5864;52.998;9.068;2023-06-01T04:11:33;13.00;99.90
11617;DHT22;5864;52.998;9.068;2023-06-01T04:14:20;13.00;99.90
11617;DHT22;5864;52.998;9.068;2023-06-01T04:17:07;13.10;99.90
11617;DHT22;5864;52.998;9.068;2023-06-01T04:19:53;13.10;99.90
11617;DHT22;5864;52.998;9.068;2023-06-01T04:22:39;13.10;99.90
11617;DHT22;5864;52.998;9.068;2023-06-01T04:25:25;13.10;99.90
11617;DHT22;5864;52.998;9.068;2023-06-01T04:28:13;13.00;99.90
11617;DHT22;5864;52.998;9.068;2023-06-01T04:30:58;12.80;99.90
11617;DHT22;5864;52.998;9.068;2023-06-01T04:33:46;13.50;99.90
11617;DHT22;5864;52.998;9.068;2023-06-01T04:36:37;12.70;99.90
11617;DHT22;5864;52.998;9.068;2023-06-01T04:39:23;12.90;99.90
11617;DHT22;5864;52.998;9.068;2023-06-01T04:42:09;12.80;99.90
11617;DHT22;5864;52.998;9.068;2023-06-01T04:44:58;12.80;99.90
11617;DHT22;5864;52.998;9.068;2023-06-01T04:47:43;12.70;99.90
11617;DHT22;5864;52.998;9.068;2023-06-01T04:50:32;12.70;99.90
11617;DHT22;5864;52.998;9.068;2023-06-01T04:53:17;12.70;99.90
11617;DHT22;5864;52.998;9.068;2023-06-01T04:56:04;12.70;99.90
11617;DHT22;5864;52.998;9.068;2023-06-01T04:58:50;12.60;99.90
11617;DHT22;5864;52.998;9.068;2023-06-01T05:01:36;12.50;99.90
11617;DHT22;5864;52.998;9.068;2023-06-01T05:04:23;12.50;99.90
11617;DHT22;5864;52.998;9.068;2023-06-01T05:07:10;12.50;99.90
11617;DHT22;5864;52.998;9.068;2023-06-01T05:09:56;12.70;99.90
11617;DHT22;5864;52.998;9.068;2023-06-01T05:12:41;12.70;99.90
11617;DHT22;5864;52.998;9.068;2023-06-01T05:15:28;12.60;99.90
11617;DHT22;5864;52.998;9.068;2023-06-01T05:18:14;12.50;99.90
11617;DHT22;5864;52.998;9.068;2023-06-01T05:21:01;12.50;99.90
11617;DHT22;5864;52.998;9.068;2023-06-01T05:23:48;12.60;99.90
11617;DHT22;5864;52.998;9.068;2023-06-01T05:26:34;12.40;99.90
11617;DHT22;5864;52.998;9.068;2023-06-01T05:29:19;12.40;99.90
11617;DHT22;5864;52.998;9.068;2023-06-01T05:32:07;12.50;99.90
11617;DHT22;5864;52.998;9.068;2023-06-01T05:34:53;12.40;99.90
11617;DHT22;5864;52.998;9.068;2023-06-01T05:37:38;12.60;99.90
11617;DHT22;5864;52.998;9.068;2023-06-01T05:40:26;12.60;99.90
11617;DHT22;5864;52.998;9.068;2023-06-01T05:43:11;12.60;99.90
11617;DHT22;5864;52.998;9.068;2023-06-01T05:45:57;12.70;99.90
11617;DHT22;5864;52.998;9.068;2023-06-01T05:48:43;12.90;99.90
11617;DHT22;5864;52.998;9.068;2023-06-01T05:51:28;12.90;99.90
11617;DHT22;5864;52.998;9.068;2023-06-01T05:54:14;12.90;99.90
11617;DHT22;5864;52.998;9.068;2023-06-01T05:57:00;13.00;99.90
11617;DHT22;5864;52.998;9.068;2023-06-01T05:59:46;12.90;99.90
11617;DHT22;5864;52.998;9.068;2023-06-01T06:02:31;12.90;99.90
11617;DHT22;5864;52.998;9.068;2023-06-01T06:05:18;12.80;99.90
11617;DHT22;5864;52.998;9.068;2023-06-01T06:08:03;12.80;99.90
11617;DHT22;5864;52.998;9.068;2023-06-01T06:10:50;13.00;99.90
11617;DHT22;5864;52.998;9.068;2023-06-01T06:13:37;12.90;99.90
11617;DHT22;5864;52.998;9.068;2023-06-01T06:16:22;12.90;99.90
11617;DHT22;5864;52.998;9.068;2023-06-01T06:19:08;12.70;99.90
11617;DHT22;5864;52.998;9.068;2023-06-01T06:21:53;12.60;99.90
11617;DHT22;5864;52.998;9.068;2023-06-01T06:24:40;12.70;99.90
11617;DHT22;5864;52.998;9.068;2023-06-01T06:27:26;12.90;99.90
11617;DHT22;5864;52.998;9.068;2023-06-01T06:30:13;12.80;99.90
11617;DHT22;5864;52.998;9.068;2023-06-01T06:32:59;12.90;99.90
11617;DHT22;5864;52.998;9.068;2023-06-01T06:35:44;13.00;99.90
11617;DHT22;5864;52.998;9.068;2023-06-01T06:38:30;13.00;99.90
11617;DHT22;5864;52.998;9.068;2023-06-01T06:41:16;13.10;99.90
11617;DHT22;5864;52.998;9.068;2023-06-01T06:44:02;13.00;99.90
11617;DHT22;5864;52.998;9.068;2023-06-01T06:46:48;12.90;99.90
11617;DHT22;5864;52.998;9.068;2023-06-01T06:49:34;12.80;99.90
11617;DHT22;5864;52.998;9.068;2023-06-01T06:52:19;12.90;99.90
11617;DHT22;5864;52.998;9.068;2023-06-01T06:55:06;12.90;99.90
11617;DHT22;5864;52.998;9.068;2023-06-01T06:57:52;13.00;99.90
11617;DHT22;5864;52.998;9.068;2023-06-01T07:00:38;13.10;99.90
11617;DHT22;5864;52.998;9.068;2023-06-01T07:03:24;13.10;99.90
11617;DHT22;5864;52.998;9.068;2023-06-01T07:06:10;14.10;99.90
11617;DHT22;5864;52.998;9.068;2023-06-01T07:08:56;13.00;99.90
11617;DHT22;5864;52.998;9.068;2023-06-01T07:11:43;13.00;99.90
11617;DHT22;5864;52.998;9.068;2023-06-01T07:14:29;13.10;99.90
11617;DHT22;5864;52.998;9.068;2023-06-01T07:17:15;13.30;99.90
11617;DHT22;5864;52.998;9.068;2023-06-01T07:20:02;13.40;99.90
11617;DHT22;5864;52.998;9.068;2023-06-01T07:22:51;13.30;99.90
11617;DHT22;5864;52.998;9.068;2023-06-01T07:25:36;13.30;99.90
11617;DHT22;5864;52.998;9.068;2023-06-01T07:28:22;13.50;99.90
11617;DHT22;5864;52.998;9.068;2023-06-01T07:31:11;13.70;99.90
11617;DHT22;5864;52.998;9.068;2023-06-01T07:33:57;13.60;99.90
11617;DHT22;5864;52.998;9.068;2023-06-01T07:36:45;13.40;99.90
11617;DHT22;5864;52.998;9.068;2023-06-01T07:39:32;13.40;99.90
11617;DHT22;5864;52.998;9.068;2023-06-01T07:42:17;13.40;99.90
11617;DHT22;5864;52.998;9.068;2023-06-01T07:45:05;13.50;99.90
11617;DHT22;5864;52.998;9.068;2023-06-01T07:47:52;13.50;99.90
11617;DHT22;5864;52.998;9.068;2023-06-01T07:50:39;13.50;99.90
11617;DHT22;5864;52.998;9.068;2023-06-01T07:53:25;13.60;99.90
11617;DHT22;5864;52.998;9.068;2023-06-01T07:56:12;14.80;99.90
11617;DHT22;5864;52.998;9.068;2023-06-01T07:58:57;13.60;99.90
11617;DHT22;5864;52.998;9.068;2023-06-01T08:01:43;13.90;99.90
11617;DHT22;5864;52.998;9.068;2023-06-01T08:04:28;14.00;99.90
11617;DHT22;5864;52.998;9.068;2023-06-01T08:07:18;13.90;99.90
11617;DHT22;5864;52.998;9.068;2023-06-01T08:10:06;13.90;99.90
11617;DHT22;5864;52.998;9.068;2023-06-01T08:12:52;13.80;99.90
11617;DHT22;5864;52.998;9.068;2023-06-01T08:15:40;13.80;99.90
11617;DHT22;5864;52.998;9.068;2023-06-01T08:18:27;13.80;99.90
11617;DHT22;5864;52.998;9.068;2023-06-01T08:21:13;14.10;99.90
11617;DHT22;5864;52.998;9.068;2023-06-01T08:23:59;14.00;99.90
11617;DHT22;5864;52.998;9.068;2023-06-01T08:26:46;14.10;99.90
11617;DHT22;5864;52.998;9.068;2023-06-01T08:29:33;14.00;99.90
11617;DHT22;5864;52.998;9.068;2023-06-01T08:32:18;13.70;99.90
11617;DHT22;5864;52.998;9.068;2023-06-01T08:35:05;13.90;99.90
11617;DHT22;5864;52.998;9.068;2023-06-01T08:37:51;13.90;99.90
11617;DHT22;5864;52.998;9.068;2023-06-01T08:40:38;13.70;99.90
11617;DHT22;5864;52.998;9.068;2023-06-01T08:43:31;13.70;99.90
11617;DHT22;5864;52.998;9.068;2023-06-01T08:46:20;13.80;99.90
11617;DHT22;5864;52.998;9.068;2023-06-01T08:49:07;13.80;99.90
11617;DHT22;5864;52.998;9.068;2023-06-01T08:51:56;13.80;99.90
11617;DHT22;5864;52.998;9.068;2023-06-01T08:54:44;13.90;99.90
11617;DHT22;5864;52.998;9.068;2023-06-01T08:57:30;14.10;99.90
11617;DHT22;5864;52.998;9.068;2023-06-01T09:00:18;14.10;99.90
11617;DHT22;5864;52.998;9.068;2023-06-01T09:03:05;14.00;99.90
11617;DHT22;5864;52.998;9.068;2023-06-01T09:05:51;14.00;99.90
11617;DHT22;5864;52.998;9.068;2023-06-01T09:08:36;14.00;99.90
11617;DHT22;5864;52.998;9.068;2023-06-01T09:11:25;14.30;99.90
11617;DHT22;5864;52.998;9.068;2023-06-01T09:14:20;14.50;99.90
11617;DHT22;5864;52.998;9.068;2023-06-01T09:17:12;14.80;99.90
11617;DHT22;5864;52.998;9.068;2023-06-01T09:19:58;14.80;99.90
11617;DHT22;5864;52.998;9.068;2023-06-01T09:22:45;14.70;99.90
11617;DHT22;5864;52.998;9.068;2023-06-01T09:25:32;15.00;99.90
11617;DHT22;5864;52.998;9.068;2023-06-01T09:28:18;14.90;99.00
11617;DHT22;5864;52.998;9.068;2023-06-01T09:31:05;15.10;99.30
11617;DHT22;5864;52.998;9.068;2023-06-01T09:33:59;15.20;97.50
11617;DHT22;5864;52.998;9.068;2023-06-01T09:36:46;15.10;97.70
11617;DHT22;5864;52.998;9.068;2023-06-01T09:39:33;15.00;97.60
11617;DHT22;5864;52.998;9.068;2023-06-01T09:42:30;15.00;99.60
11617;DHT22;5864;52.998;9.068;2023-06-01T09:45:19;14.80;99.90
11617;DHT22;5864;52.998;9.068;2023-06-01T09:48:17;15.00;99.90
11617;DHT22;5864;52.998;9.068;2023-06-01T09:51:05;15.10;99.90
11617;DHT22;5864;52.998;9.068;2023-06-01T09:54:06;15.20;99.90
11617;DHT22;5864;52.998;9.068;2023-06-01T09:56:52;15.00;99.90
11617;DHT22;5864;52.998;9.068;2023-06-01T09:59:40;14.90;99.90
11617;DHT22;5864;52.998;9.068;2023-06-01T10:02:26;14.80;99.90
11617;DHT22;5864;52.998;9.068;2023-06-01T10:05:11;14.90;99.90
11617;DHT22;5864;52.998;9.068;2023-06-01T10:08:00;14.80;99.90
11617;DHT22;5864;52.998;9.068;2023-06-01T10:10:48;15.00;99.90
11617;DHT22;5864;52.998;9.068;2023-06-01T10:13:35;14.80;99.90
11617;DHT22;5864;52.998;9.068;2023-06-01T10:16:21;14.80;99.90
11617;DHT22;5864;52.998;9.068;2023-06-01T10:19:07;14.90;95.50
11617;DHT22;5864;52.998;9.068;2023-06-01T10:21:53;15.10;98.50
11617;DHT22;5864;52.998;9.068;2023-06-01T10:24:43;15.20;94.50
11617;DHT22;5864;52.998;9.068;2023-06-01T10:27:33;15.30;93.10
11617;DHT22;5864;52.998;9.068;2023-06-01T10:30:20;14.90;97.10
11617;DHT22;5864;52.998;9.068;2023-06-01T10:33:07;14.70;99.80
11617;DHT22;5864;52.998;9.068;2023-06-01T10:35:52;14.80;99.90
11617;DHT22;5864;52.998;9.068;2023-06-01T10:38:39;15.10;96.40
11617;DHT22;5864;52.998;9.068;2023-06-01T10:41:28;15.30;93.40
11617;DHT22;5864;52.998;9.068;2023-06-01T10:47:46;15.30;75.30
11617;DHT22;5864;52.998;9.068;2023-06-01T10:50:34;15.30;72.50
11617;DHT22;5864;52.998;9.068;2023-06-01T10:53:28;15.50;90.30
11617;DHT22;5864;52.998;9.068;2023-06-01T10:56:19;15.60;71.10
11617;DHT22;5864;52.998;9.068;2023-06-01T10:59:13;15.70;74.80
11617;DHT22;5864;52.998;9.068;2023-06-01T11:02:03;15.90;69.70
11617;DHT22;5864;52.998;9.068;2023-06-01T11:04:49;15.90;57.90
11617;DHT22;5864;52.998;9.068;2023-06-01T11:07:35;15.60;67.80
11617;DHT22;5864;52.998;9.068;2023-06-01T11:10:53;15.50;76.10
11617;DHT22;5864;52.998;9.068;2023-06-01T11:13:40;15.30;83.90
11617;DHT22;5864;52.998;9.068;2023-06-01T11:16:31;15.50;56.40
11617;DHT22;5864;52.998;9.068;2023-06-01T11:19:17;15.50;56.80
11617;DHT22;5864;52.998;9.068;2023-06-01T11:22:05;15.80;55.90
11617;DHT22;5864;52.998;9.068;2023-06-01T11:24:51;15.80;49.80
11617;DHT22;5864;52.998;9.068;2023-06-01T11:27:44;16.00;42.70
11617;DHT22;5864;52.998;9.068;2023-06-01T11:30:30;15.80;44.00
11617;DHT22;5864;52.998;9.068;2023-06-01T11:33:17;15.80;46.70
11617;DHT22;5864;52.998;9.068;2023-06-01T11:36:03;15.90;46.50
11617;DHT22;5864;52.998;9.068;2023-06-01T11:38:51;16.20;49.70
11617;DHT22;5864;52.998;9.068;2023-06-01T11:41:36;16.30;35.60
11617;DHT22;5864;52.998;9.068;2023-06-01T11:44:23;16.50;29.60
11617;DHT22;5864;52.998;9.068;2023-06-01T11:47:09;16.70;27.90
11617;DHT22;5864;52.998;9.068;2023-06-01T11:49:57;16.70;27.50
11617;DHT22;5864;52.998;9.068;2023-06-01T11:52:43;16.80;25.00
11617;DHT22;5864;52.998;9.068;2023-06-01T11:55:28;16.60;26.10
11617;DHT22;5864;52.998;9.068;2023-06-01T11:58:20;16.80;27.00
11617;DHT22;5864;52.998;9.068;2023-06-01T12:01:06;16.80;27.20
11617;DHT22;5864;52.998;9.068;2023-06-01T12:03:51;16.80;26.60
11617;DHT22;5864;52.998;9.068;2023-06-01T12:06:38;16.50;28.20
11617;DHT22;5864;52.998;9.068;2023-06-01T12:09:24;16.60;29.90
11617;DHT22;5864;52.998;9.068;2023-06-01T12:12:10;16.50;29.50
11617;DHT22;5864;52.998;9.068;2023-06-01T12:14:56;16.00;34.20
11617;DHT22;5864;52.998;9.068;2023-06-01T12:17:46;16.30;41.30
11617;DHT22;5864;52.998;9.068;2023-06-01T12:20:34;16.30;30.90
11617;DHT22;5864;52.998;9.068;2023-06-01T12:23:21;16.10;34.60
11617;DHT22;5864;52.998;9.068;2023-06-01T12:26:07;16.20;38.80
11617;DHT22;5864;52.998;9.068;2023-06-01T12:28:53;16.30;37.10
11617;DHT22;5864;52.998;9.068;2023-06-01T12:31:46;16.50;29.70
11617;DHT22;5864;52.998;9.068;2023-06-01T12:34:36;16.50;34.80
11617;DHT22;5864;52.998;9.068;2023-06-01T12:37:23;16.40;32.70
11617;DHT22;5864;52.998;9.068;2023-06-01T12:40:21;16.30;37.60
11617;DHT22;5864;52.998;9.068;2023-06-01T12:43:18;16.10;35.30
11617;DHT22;5864;52.998;9.068;2023-06-01T12:46:04;16.10;35.90
11617;DHT22;5864;52.998;9.068;2023-06-01T12:48:51;16.20;42.80
11617;DHT22;5864;52.998;9.068;2023-06-01T12:51:38;16.10;34.80
11617;DHT22;5864;52.998;9.068;2023-06-01T12:54:23;16.10;41.90
11617;DHT22;5864;52.998;9.068;2023-06-01T12:57:13;16.10;42.60
11617;DHT22;5864;52.998;9.068;2023-06-01T12:59:59;16.10;33.00
11617;DHT22;5864;52.998;9.068;2023-06-01T13:02:45;16.30;36.60
11617;DHT22;5864;52.998;9.068;2023-06-01T13:05:32;16.40;32.20
11617;DHT22;5864;52.998;9.068;2023-06-01T13:08:18;16.00;38.70
11617;DHT22;5864;52.998;9.068;2023-06-01T13:11:04;16.00;49.50
11617;DHT22;5864;52.998;9.068;2023-06-01T13:13:52;16.10;46.50
11617;DHT22;5864;52.998;9.068;2023-06-01T13:16:37;16.10;43.10
11617;DHT22;5864;52.998;9.068;2023-06-01T13:19:23;15.70;53.80
11617;DHT22;5864;52.998;9.068;2023-06-01T13:22:09;15.70;54.20
11617;DHT22;5864;52.998;9.068;2023-06-01T13:24:55;15.50;57.10
11617;DHT22;5864;52.998;9.068;2023-06-01T13:27:40;15.70;54.60
11617;DHT22;5864;52.998;9.068;2023-06-01T13:30:28;15.70;46.10
11617;DHT22;5864;52.998;9.068;2023-06-01T13:33:14;15.90;46.00
11617;DHT22;5864;52.998;9.068;2023-06-01T13:36:00;16.20;45.00
11617;DHT22;5864;52.998;9.068;2023-06-01T13:38:46;16.20;38.90
11617;DHT22;5864;52.998;9.068;2023-06-01T13:41:31;16.80;38.60
11617;DHT22;5864;52.998;9.068;2023-06-01T13:44:18;16.00;35.40
11617;DHT22;5864;52.998;9.068;2023-06-01T13:47:05;16.10;40.40
11617;DHT22;5864;52.998;9.068;2023-06-01T13:49:52;16.00;41.80
11617;DHT22;5864;52.998;9.068;2023-06-01T13:52:37;15.80;47.70
11617;DHT22;5864;52.998;9.068;2023-06-01T13:55:24;15.80;52.00
11617;DHT22;5864;52.998;9.068;2023-06-01T13:58:11;15.80;54.90
11617;DHT22;5864;52.998;9.068;2023-06-01T14:00:57;15.90;52.00
11617;DHT22;5864;52.998;9.068;2023-06-01T14:03:44;15.50;55.90
11617;DHT22;5864;52.998;9.068;2023-06-01T14:06:30;15.50;58.50
11617;DHT22;5864;52.998;9.068;2023-06-01T14:09:18;15.60;57.90
11617;DHT22;5864;52.998;9.068;2023-06-01T14:12:05;15.80;57.80
11617;DHT22;5864;52.998;9.068;2023-06-01T14:14:51;16.00;46.50
11617;DHT22;5864;52.998;9.068;2023-06-01T14:17:36;16.00;44.00
11617;DHT22;5864;52.998;9.068;2023-06-01T14:20:23;16.00;37.70
11617;DHT22;5864;52.998;9.068;2023-06-01T14:23:10;15.90;33.80
11617;DHT22;5864;52.998;9.068;2023-06-01T14:25:55;16.10;37.90
11617;DHT22;5864;52.998;9.068;2023-06-01T14:28:41;16.00;37.20
11617;DHT22;5864;52.998;9.068;2023-06-01T14:31:26;16.20;34.70
11617;DHT22;5864;52.998;9.068;2023-06-01T14:34:13;15.30;39.70
11617;DHT22;5864;52.998;9.068;2023-06-01T14:36:59;16.60;27.40
11617;DHT22;5864;52.998;9.068;2023-06-01T14:39:46;16.80;23.30
11617;DHT22;5864;52.998;9.068;2023-06-01T14:42:31;16.50;23.30
11617;DHT22;5864;52.998;9.068;2023-06-01T14:45:18;16.40;22.80
11617;DHT22;5864;52.998;9.068;2023-06-01T14:48:06;16.40;23.50
11617;DHT22;5864;52.998;9.068;2023-06-01T14:50:51;16.70;24.90
11617;DHT22;5864;52.998;9.068;2023-06-01T14:53:38;16.60;25.00
11617;DHT22;5864;52.998;9.068;2023-06-01T14:56:24;16.50;28.20
11617;DHT22;5864;52.998;9.068;2023-06-01T14:59:10;17.30;27.60
11617;DHT22;5864;52.998;9.068;2023-06-01T15:01:55;15.90;29.70
11617;DHT22;5864;52.998;9.068;2023-06-01T15:04:41;16.10;35.60
11617;DHT22;5864;52.998;9.068;2023-06-01T15:07:27;16.60;24.40
11617;DHT22;5864;52.998;9.068;2023-06-01T15:10:14;16.60;21.90
11617;DHT22;5864;52.998;9.068;2023-06-01T15:13:00;16.40;26.30
11617;DHT22;5864;52.998;9.068;2023-06-01T15:15:46;16.50;26.00
11617;DHT22;5864;52.998;9.068;2023-06-01T15:18:31;16.70;23.00
11617;DHT22;5864;52.998;9.068;2023-06-01T15:21:17;16.90;22.30
11617;DHT22;5864;52.998;9.068;2023-06-01T15:24:03;16.80;23.80
11617;DHT22;5864;52.998;9.068;2023-06-01T15:26:50;16.50;24.60
11617;DHT22;5864;52.998;9.068;2023-06-01T15:29:36;16.50;25.00
11617;DHT22;5864;52.998;9.068;2023-06-01T15:32:21;16.50;26.10
11617;DHT22;5864;52.998;9.068;2023-06-01T15:35:07;16.60;24.50
11617;DHT22;5864;52.998;9.068;2023-06-01T15:37:54;16.70;28.00
11617;DHT22;5864;52.998;9.068;2023-06-01T15:40:39;16.50;27.80
11617;DHT22;5864;52.998;9.068;2023-06-01T15:43:27;16.30;34.30
11617;DHT22;5864;52.998;9.068;2023-06-01T15:46:13;16.30;48.10
11617;DHT22;5864;52.998;9.068;2023-06-01T15:48:58;16.40;34.70
11617;DHT22;5864;52.998;9.068;2023-06-01T15:51:49;16.30;29.40
11617;DHT22;5864;52.998;9.068;2023-06-01T15:54:35;16.10;27.10
11617;DHT22;5864;52.998;9.068;2023-06-01T15:57:20;16.30;25.90
11617;DHT22;5864;52.998;9.068;2023-06-01T16:00:08;16.20;24.50
11617;DHT22;5864;52.998;9.068;2023-06-01T16:02:54;16.10;28.30
11617;DHT22;5864;52.998;9.068;2023-06-01T16:05:40;16.30;27.70
11617;DHT22;5864;52.998;9.068;2023-06-01T16:08:26;16.40;22.40
11617;DHT22;5864;52.998;9.068;2023-06-01T16:11:12;16.50;20.00
11617;DHT22;5864;52.998;9.068;2023-06-01T16:13:58;16.90;16.60
11617;DHT22;5864;52.998;9.068;2023-06-01T16:16:45;16.80;15.30
11617;DHT22;5864;52.998;9.068;2023-06-01T16:19:31;17.00;12.40
11617;DHT22;5864;52.998;9.068;2023-06-01T16:22:16;16.80;12.90
11617;DHT22;5864;52.998;9.068;2023-06-01T16:25:02;16.60;14.50
11617;DHT22;5864;52.998;9.068;2023-06-01T16:27:48;16.20;15.00
11617;DHT22;5864;52.998;9.068;2023-06-01T16:30:33;16.10;17.20
11617;DHT22;5864;52.998;9.068;2023-06-01T16:33:20;16.20;18.00
11617;DHT22;5864;52.998;9.068;2023-06-01T16:36:06;16.00;18.80
11617;DHT22;5864;52.998;9.068;2023-06-01T16:38:52;15.80;19.80
11617;DHT22;5864;52.998;9.068;2023-06-01T16:41:37;15.70;20.10
11617;DHT22;5864;52.998;9.068;2023-06-01T16:44:23;15.30;24.70
11617;DHT22;5864;52.998;9.068;2023-06-01T16:47:09;15.40;30.00
11617;DHT22;5864;52.998;9.068;2023-06-01T16:49:56;15.40;26.50
11617;DHT22;5864;52.998;9.068;2023-06-01T16:52:42;15.40;27.90
11617;DHT22;5864;52.998;9.068;2023-06-01T16:55:27;15.40;25.80
11617;DHT22;5864;52.998;9.068;2023-06-01T16:58:13;15.40;25.20
11617;DHT22;5864;52.998;9.068;2023-06-01T17:00:59;15.30;28.30
11617;DHT22;5864;52.998;9.068;2023-06-01T17:03:45;15.00;31.90
11617;DHT22;5864;52.998;9.068;2023-06-01T17:06:32;15.00;34.00
11617;DHT22;5864;52.998;9.068;2023-06-01T17:09:18;15.10;27.60
11617;DHT22;5864;52.998;9.068;2023-06-01T17:12:05;15.00;29.70
11617;DHT22;5864;52.998;9.068;2023-06-01T17:14:51;14.80;41.70
11617;DHT22;5864;52.998;9.068;2023-06-01T17:17:37;14.80;40.20
11617;DHT22;5864;52.998;9.068;2023-06-01T17:20:23;14.60;43.30
11617;DHT22;5864;52.998;9.068;2023-06-01T17:23:10;14.70;40.20
11617;DHT22;5864;52.998;9.068;2023-06-01T17:25:56;14.40;43.60
11617;DHT22;5864;52.998;9.068;2023-06-01T17:28:42;14.40;54.00
11617;DHT22;5864;52.998;9.068;2023-06-01T17:31:28;14.30;52.50
11617;DHT22;5864;52.998;9.068;2023-06-01T17:34:13;14.20;43.40
11617;DHT22;5864;52.998;9.068;2023-06-01T17:36:59;14.20;48.50
11617;DHT22;5864;52.998;9.068;2023-06-01T17:39:46;14.20;50.40
11617;DHT22;5864;52.998;9.068;2023-06-01T17:42:32;14.30;42.60
11617;DHT22;5864;52.998;9.068;2023-06-01T17:45:19;14.30;52.80
11617;DHT22;5864;52.998;9.068;2023-06-01T17:48:05;14.20;42.60
11617;DHT22;5864;52.998;9.068;2023-06-01T17:50:51;14.10;43.00
11617;DHT22;5864;52.998;9.068;2023-06-01T17:53:36;14.00;48.80